createdAt,value
2022-12-08T06:30:42.720Z,44.53
2022-12-08T06:39:05.346Z,45.90
2022-12-08T06:41:33.186Z,43.03
2022-12-08T06:51:38.669Z,40.60
2022-12-08T06:54:06.565Z,39.67
2022-12-08T06:56:34.212Z,49.45
2022-12-08T07:08:59.164Z,40.78
2022-12-08T07:11:27.302Z,43.10
2022-12-08T07:14:01.371Z,43.63
2022-12-08T07:16:29.189Z,43.88
2022-12-08T07:18:56.843Z,46.17
2022-12-08T07:21:24.932Z,43.63
2022-12-08T07:23:57.361Z,43.83
2022-12-08T07:26:27.088Z,40.85
2022-12-08T07:28:54.857Z,36.78
2022-12-08T07:31:24.749Z,37.80
2022-12-08T07:33:53.169Z,33.60
2022-12-08T07:36:21.099Z,30.88
2022-12-08T07:38:48.742Z,29.33
2022-12-08T07:41:23.211Z,36.55
2022-12-08T07:43:52.069Z,28.70
2022-12-08T07:46:22.261Z,26.77
2022-12-08T07:48:50.170Z,24.17
2022-12-08T07:51:19.005Z,25.33
2022-12-08T07:53:53.403Z,23.02
2022-12-08T07:56:21.939Z,18.27
2022-12-08T07:58:49.579Z,15.98
2022-12-08T08:01:25.155Z,16.70
2022-12-08T08:03:53.157Z,16.90
2022-12-08T08:06:20.888Z,17.10
2022-12-08T08:08:48.593Z,18.85
2022-12-08T08:11:20.997Z,14.95
2022-12-08T08:13:50.237Z,15.02
2022-12-08T08:16:18.244Z,13.35
2022-12-08T08:18:50.071Z,16.17
2022-12-08T08:24:07.039Z,15.63
2022-12-08T08:26:34.825Z,20.58
2022-12-08T08:29:02.517Z,19.85
2022-12-08T08:31:30.252Z,17.13
2022-12-08T08:33:58.144Z,16.65
2022-12-08T08:36:25.776Z,14.40
2022-12-08T08:38:53.660Z,12.45
2022-12-08T08:41:21.288Z,9.43
2022-12-08T08:43:49.754Z,14.18
2022-12-08T08:46:17.664Z,16.27
2022-12-08T08:48:46.672Z,17.13
2022-12-08T08:51:14.995Z,12.52
2022-12-08T08:53:42.865Z,16.85
2022-12-08T08:56:19.728Z,14.40
2022-12-08T08:58:49.131Z,11.40
2022-12-08T09:01:18.277Z,9.30
2022-12-08T09:03:46.439Z,11.63
2022-12-08T09:06:14.609Z,13.35
2022-12-08T09:08:42.645Z,12.18
2022-12-08T09:11:10.885Z,15.77
2022-12-08T09:13:38.633Z,14.50
2022-12-08T09:16:08.778Z,14.25
2022-12-08T09:18:36.684Z,12.98
2022-12-08T09:21:09.424Z,17.50
2022-12-08T09:23:37.412Z,13.95
2022-12-08T09:26:05.332Z,14.93
2022-12-08T09:28:33.274Z,11.93
2022-12-08T09:31:01.394Z,9.45
2022-12-08T09:33:30.384Z,12.60
2022-12-08T09:36:02.778Z,13.02
2022-12-08T09:38:31.247Z,18.35
2022-12-08T09:40:59.292Z,18.15
2022-12-08T09:43:48.270Z,19.33
2022-12-08T09:46:16.093Z,15.52
2022-12-08T09:48:48.066Z,15.77
2022-12-08T09:51:16.926Z,11.25
2022-12-08T09:55:15.023Z,12.35
2022-12-08T09:58:04.106Z,16.88
2022-12-08T10:00:32.341Z,12.75
2022-12-08T10:03:00.335Z,12.40
2022-12-08T10:05:28.235Z,9.23
2022-12-08T10:08:20.222Z,14.77
2022-12-08T10:10:58.471Z,11.90
2022-12-08T10:13:40.925Z,10.85
2022-12-08T10:16:28.163Z,15.18
2022-12-08T10:19:16.349Z,14.63
2022-12-08T10:21:45.339Z,16.23
2022-12-08T10:24:31.802Z,5.97
2022-12-08T10:26:59.672Z,10.70
2022-12-08T10:29:27.232Z,9.30
2022-12-08T10:31:57.398Z,13.68
2022-12-08T10:34:25.117Z,9.93
2022-12-08T10:36:57.466Z,13.15
2022-12-08T10:39:43.983Z,17.02
2022-12-08T10:42:14.709Z,13.80
2022-12-08T10:44:59.256Z,11.18
2022-12-08T10:47:28.165Z,13.65
2022-12-08T10:50:22.120Z,13.20
2022-12-08T10:53:00.326Z,16.35
2022-12-08T10:55:29.049Z,12.18
2022-12-08T10:57:56.730Z,9.27
2022-12-08T11:00:26.183Z,13.02
2022-12-08T11:02:58.665Z,10.27
2022-12-08T11:05:28.715Z,12.00
2022-12-08T11:07:56.574Z,8.93
2022-12-08T11:10:44.727Z,8.98
2022-12-08T11:13:23.874Z,10.02
2022-12-08T11:15:51.798Z,15.40
2022-12-08T11:18:23.066Z,11.30
2022-12-08T11:23:26.139Z,14.50
2022-12-08T11:25:54.468Z,18.73
2022-12-08T11:28:23.695Z,16.02
2022-12-08T11:30:58.909Z,12.70
2022-12-08T11:33:27.786Z,10.27
2022-12-08T11:36:09.180Z,20.20
2022-12-08T11:38:41.234Z,14.82
2022-12-08T11:41:17.023Z,15.48
2022-12-08T11:43:56.001Z,12.10
2022-12-08T11:46:37.446Z,10.18
2022-12-08T11:49:09.122Z,12.68
2022-12-08T11:51:44.197Z,10.68
2022-12-08T11:54:30.105Z,14.35
2022-12-08T11:57:02.086Z,11.00
2022-12-08T11:59:30.718Z,11.18
2022-12-08T12:01:59.777Z,14.93
2022-12-08T12:04:49.357Z,15.43
2022-12-08T12:07:54.024Z,10.73
2022-12-08T12:10:49.594Z,6.82
2022-12-08T12:13:30.864Z,14.18
2022-12-08T12:16:28.187Z,13.07
2022-12-08T12:19:00.511Z,15.68
2022-12-08T12:21:49.514Z,23.50
2022-12-08T12:24:26.696Z,14.27
2022-12-08T12:27:03.018Z,16.02
2022-12-08T12:29:32.603Z,14.27
2022-12-08T12:32:03.066Z,14.52
2022-12-08T12:34:35.946Z,9.30
2022-12-08T12:37:32.894Z,13.30
2022-12-08T12:40:02.496Z,13.80
2022-12-08T12:42:42.635Z,14.30
2022-12-08T12:45:31.475Z,14.93
2022-12-08T12:48:00.026Z,15.98
2022-12-08T12:50:33.761Z,14.07
2022-12-08T12:53:07.920Z,14.85
2022-12-08T12:55:58.494Z,13.20
2022-12-08T12:58:32.032Z,11.45
2022-12-08T13:01:08.737Z,14.23
2022-12-08T13:03:47.485Z,17.60
2022-12-08T13:06:15.690Z,23.08
2022-12-08T13:08:50.939Z,20.27
2022-12-08T13:11:18.760Z,19.00
2022-12-08T13:14:03.931Z,20.02
2022-12-08T13:16:32.499Z,20.85
2022-12-08T13:19:03.980Z,14.82
2022-12-08T13:21:36.243Z,18.42
2022-12-08T13:24:25.701Z,27.70
2022-12-08T13:27:05.512Z,15.65
2022-12-08T13:29:34.392Z,16.45
2022-12-08T13:32:03.231Z,15.00
2022-12-08T13:34:50.064Z,18.75
2022-12-08T13:37:20.289Z,18.13
2022-12-08T13:40:23.457Z,16.55
2022-12-08T13:42:56.538Z,29.50
2022-12-08T13:46:10.831Z,22.98
2022-12-08T13:48:35.134Z,21.00
2022-12-08T13:57:33.763Z,18.83
2022-12-08T14:00:03.208Z,23.40
2022-12-08T14:02:47.779Z,14.35
2022-12-08T14:05:19.103Z,25.58
2022-12-08T14:07:48.684Z,17.48
2022-12-08T14:10:18.704Z,10.60
2022-12-08T14:12:47.408Z,10.88
2022-12-08T14:15:15.570Z,8.70
2022-12-08T14:17:54.084Z,8.75
2022-12-08T14:20:31.810Z,9.23
2022-12-08T14:23:02.204Z,13.95
2022-12-08T14:25:30.015Z,9.43
2022-12-08T14:28:01.153Z,9.00
2022-12-08T14:30:31.418Z,11.13
2022-12-08T14:33:00.563Z,15.60
2022-12-08T14:35:32.829Z,15.25
2022-12-08T14:38:02.149Z,24.08
2022-12-08T14:40:35.036Z,20.30
2022-12-08T14:43:11.017Z,16.27
2022-12-08T14:45:41.670Z,12.68
2022-12-08T14:48:23.060Z,12.90
2022-12-08T14:51:12.071Z,15.70
2022-12-08T14:53:53.297Z,15.93
2022-12-08T14:56:36.356Z,13.02
2022-12-08T14:59:23.100Z,23.20
2022-12-08T15:01:52.272Z,17.40
2022-12-08T15:04:29.264Z,17.73
2022-12-08T15:07:17.614Z,24.08
2022-12-08T15:10:11.164Z,18.58
2022-12-08T15:12:38.827Z,18.77
2022-12-08T15:15:09.613Z,26.40
2022-12-08T15:17:40.227Z,31.27
2022-12-08T15:20:43.035Z,17.03
2022-12-08T15:23:27.050Z,22.15
2022-12-08T15:25:55.653Z,29.08
2022-12-08T15:28:29.986Z,22.70
2022-12-08T15:30:58.464Z,18.90
2022-12-08T15:33:26.810Z,17.70
2022-12-08T15:35:54.577Z,24.17
2022-12-08T15:38:29.026Z,21.77
2022-12-08T15:40:58.848Z,17.98
2022-12-08T15:43:26.690Z,26.60
2022-12-08T15:45:59.545Z,31.88
2022-12-08T15:48:28.945Z,28.42
2022-12-08T15:50:57.086Z,23.70
2022-12-08T15:53:25.169Z,24.40
2022-12-08T15:58:58.767Z,25.20
2022-12-08T16:01:27.405Z,25.45
2022-12-08T16:09:36.664Z,24.67
2022-12-08T16:12:24.965Z,27.08
2022-12-08T16:17:40.924Z,26.15
2022-12-08T16:20:15.206Z,27.30
2022-12-08T16:23:13.156Z,22.10
2022-12-08T16:25:46.263Z,28.20
2022-12-08T16:28:52.259Z,17.80
2022-12-08T16:31:11.653Z,24.15
2022-12-08T16:33:41.351Z,18.00
